Flight Track Log - Related Links

Times and Time Zones

All times are in EDT time to prevent confusion due to time zone crossing. See the UPS1121 flight status page for this flight to view local times or setup timezone preferences in your user account.

Time Position Orientation Groundspeed Altitude Reporting Facility
EDT Latitude Longitude Course Direction KTS MPH feet Rate Location/Type
Thu 09:55:43 PM 41.9292 -72.7025 210° Southwest 157 181 1,200  Level Boston Center
Thu 09:57:20 PM 41.8519 -72.7633 210° Southwest 227 261 4,700 2,692 Climbing Boston Center
Thu 10:02:42 PM 41.4380 -72.3850 210° Southwest 373 429 20,000 2,403 Climbing FlightAware ADS-B
Thu 10:03:42 PM 41.3530 -72.4530 211° Southwest 379 436 20,000  Level FlightAware ADS-B
Thu 10:04:17 PM 41.2970 -72.4980 211° Southwest 382 440 20,000  Level FlightAware ADS-B
Thu 10:05:02 PM 41.2360 -72.5470 211° Southwest 382 440 20,000  Level FlightAware ADS-B
Thu 10:05:42 PM 41.1850 -72.5880 211° Southwest 382 440 20,000  Level FlightAware ADS-B
Thu 10:06:32 PM 41.0860 -72.6600 209° Southwest 380 437 20,000  Level FlightAware ADS-B
Thu 10:07:12 PM 41.0260 -72.7050 210° Southwest 378 435 20,000  Level FlightAware ADS-B
Thu 10:07:52 PM 40.9640 -72.7520 210° Southwest 376 433 20,000  Level FlightAware ADS-B
Thu 10:08:37 PM 40.8950 -72.8050 210° Southwest 374 430 20,000  Level FlightAware ADS-B
Thu 10:09:07 PM 40.8477 -72.8411 210° Southwest 374 430 20,000  Level FlightAware ADS-B
Thu 10:09:37 PM 40.8025 -72.8754 210° Southwest 374 430 20,000  Level FlightAware ADS-B
Thu 10:10:09 PM 40.7536 -72.9125 210° Southwest 375 432 20,000  Level FlightAware ADS-B
Thu 10:10:39 PM 40.7085 -72.9465 210° Southwest 373 429 20,000  Level FlightAware ADS-B
Thu 10:11:10 PM 40.6617 -72.9816 210° Southwest 376 433 20,000  Level FlightAware ADS-B
Thu 10:11:40 PM 40.6161 -73.0158 210° Southwest 378 435 20,000  Level FlightAware ADS-B
Thu 10:12:11 PM 40.5695 -73.0507 210° Southwest 379 436 20,000  Level FlightAware ADS-B
Thu 10:12:41 PM 40.5237 -73.0848 210° Southwest 380 437 20,000  Level FlightAware ADS-B
Thu 10:13:11 PM 40.4773 -73.1194 210° Southwest 383 441 20,000  Level FlightAware ADS-B
Thu 10:13:41 PM 40.4304 -73.1542 209° Southwest 383 441 20,000  Level FlightAware ADS-B
Thu 10:14:12 PM 40.3870 -73.1860 209° Southwest 382 440 20,000  Level FlightAware ADS-B
Thu 10:14:20 PM 40.3712 -73.1980 210° Southwest 382 440 20,000  Level FlightAware ADS-B
Thu 10:14:51 PM 40.3238 -73.2331 209° Southwest 382 440 20,000  Level FlightAware ADS-B
Thu 10:15:22 PM 40.2756 -73.2686 209° Southwest 384 442 20,000  Level FlightAware ADS-B
Thu 10:15:55 PM 40.2249 -73.3060 209° Southwest 383 441 20,000  Level FlightAware ADS-B
Thu 10:16:25 PM 40.1785 -73.3400 209° Southwest 384 442 20,000  Level FlightAware ADS-B
Thu 10:16:55 PM 40.1309 -73.3751 209° Southwest 384 442 20,000  Level FlightAware ADS-B
Thu 10:17:29 PM 40.0791 -73.4131 209° Southwest 386 444 20,000  Level FlightAware ADS-B
Thu 10:18:00 PM 40.0310 -73.4484 209° Southwest 389 448 20,000  Level FlightAware ADS-B
Thu 10:18:30 PM 39.9825 -73.4837 209° Southwest 391 450 20,000  Level FlightAware ADS-B
Thu 10:19:01 PM 39.9346 -73.5187 209° Southwest 393 452 20,000  Level FlightAware ADS-B
Thu 10:19:10 PM 39.9198 -73.5306 212° Southwest 389 448 20,000  Level FlightAware ADS-B
Thu 10:19:32 PM 39.8890 -73.5608 217° Southwest 384 442 20,000  Level FlightAware ADS-B
Thu 10:19:58 PM 39.8571 -73.6021 225° Southwest 378 435 20,000  Level FlightAware ADS-B
Thu 10:20:32 PM 39.8190 -73.6634 231° Southwest 378 435 20,000  Level FlightAware ADS-B
Thu 10:21:03 PM 39.7854 -73.7178 231° Southwest 378 435 20,000  Level FlightAware ADS-B
Thu 10:21:34 PM 39.7517 -73.7723 231° Southwest 378 435 20,000  Level FlightAware ADS-B
Thu 10:22:10 PM 39.7126 -73.8356 231° Southwest 378 435 20,000 -91 Level FlightAware ADS-B
Thu 10:22:40 PM 39.6797 -73.8886 231° Southwest 380 437 19,900 -984 Descending FlightAware ADS-B
Thu 10:23:11 PM 39.6461 -73.9427 231° Southwest 372 428 19,000 -2,226 Descending FlightAware ADS-B
Thu 10:23:42 PM 39.6122 -73.9971 231° Southwest 367 422 17,600 -2,516 Descending FlightAware ADS-B
Thu 10:24:13 PM 39.5802 -74.0484 231° Southwest 360 414 16,400 -2,516 Descending FlightAware ADS-B
Thu 10:24:44 PM 39.5476 -74.1004 231° Southwest 356 410 15,000 -2,571 Descending FlightAware ADS-B
Thu 10:24:55 PM 39.5376 -74.1196 236° Southwest 351 404 14,600 -2,118 Descending FlightAware ADS-B
Thu 10:25:01 PM 39.5330 -74.1320 244° Southwest 347 399 14,400 -1,154 Descending FlightAware ADS-B
Thu 10:25:21 PM 39.5254 -74.1711 256° West 337 388 14,100 -1,200 Descending FlightAware ADS-B
Thu 10:25:56 PM 39.5257 -74.2410 270° West 334 384 13,300 -1,167 Descending FlightAware ADS-B
Thu 10:26:33 PM 39.5273 -74.3127 272° West 321 369 12,700 -971 Descending FlightAware ADS-B
Thu 10:27:04 PM 39.5282 -74.3707 271° West 315 362 12,200 -917 Descending FlightAware ADS-B
Thu 10:27:45 PM 39.5292 -74.4479 271° West 317 365 11,600 -947 Descending FlightAware ADS-B
Thu 10:28:20 PM 39.5297 -74.5138 271° West 305 351 11,000 -896 Descending FlightAware ADS-B
Thu 10:28:52 PM 39.5304 -74.5699 271° West 295 339 10,600 -844 Descending FlightAware ADS-B
Thu 10:29:24 PM 39.5316 -74.6247 272° West 279 321 10,100 -655 Descending FlightAware ADS-B
Thu 10:29:47 PM 39.5324 -74.6622 272° West 260 299 10,000 -769 Descending FlightAware ADS-B
Thu 10:30:03 PM 39.5331 -74.6880 272° West 259 298 9,600 -1,091 Descending FlightAware ADS-B
Thu 10:30:20 PM 39.5337 -74.7148 272° West 274 315 9,400 -750 Descending FlightAware ADS-B
Thu 10:30:35 PM 39.5341 -74.7397 271° West 273 314 9,200 -545 Descending FlightAware ADS-B
Thu 10:30:53 PM 39.5345 -74.7682 271° West 269 310 9,100 -182 Descending FlightAware ADS-B
Thu 10:31:08 PM 39.5349 -74.7930 271° West 270 311 9,100  Level FlightAware ADS-B
Thu 10:31:15 PM 39.5353 -74.8050 272° West 271 312 9,100 -375 Level FlightAware ADS-B
Thu 10:31:24 PM 39.5369 -74.8181 279° West 270 311 9,000 -800 Descending FlightAware ADS-B
Thu 10:31:30 PM 39.5399 -74.8282 291° West 267 307 8,900 -1,091 Descending FlightAware ADS-B
Thu 10:31:35 PM 39.5429 -74.8345 302° West 265 305 8,800 -923 Descending FlightAware ADS-B
Thu 10:31:43 PM 39.5495 -74.8438 313° West 263 303 8,700 -545 Descending FlightAware ADS-B
Thu 10:31:46 PM 39.5526 -74.8468 323° Northwest 262 302 8,700 -750 Level FlightAware ADS-B
Thu 10:31:51 PM 39.5573 -74.8502 331° Northwest 261 300 8,600 -1,333 Descending FlightAware ADS-B
Thu 10:31:55 PM 39.5627 -74.8530 338° Northwest 261 300 8,500 -1,333 Descending FlightAware ADS-B
Thu 10:32:00 PM 39.5680 -74.8549 345° North 260 299 8,400 -1,333 Descending FlightAware ADS-B
Thu 10:32:04 PM 39.5727 -74.8562 348° North 259 298 8,300 -1,125 Descending FlightAware ADS-B
Thu 10:32:16 PM 39.5865 -74.8590 351° North 259 298 8,100 -324 Descending FlightAware ADS-B
Thu 10:32:41 PM 39.6166 -74.8644 352° North 261 300 8,100  Level FlightAware ADS-B
Thu 10:32:56 PM 39.6351 -74.8678 352° North 263 303 8,100  Level FlightAware ADS-B
Thu 10:33:11 PM 39.6533 -74.8712 352° North 264 304 8,100  Level FlightAware ADS-B
Thu 10:33:25 PM 39.6703 -74.8745 352° North 263 303 8,100 -207 Level FlightAware ADS-B
Thu 10:33:40 PM 39.6878 -74.8779 351° North 260 299 8,000 -774 Descending FlightAware ADS-B
Thu 10:33:56 PM 39.7072 -74.8818 351° North 257 296 7,700 -1,333 Descending FlightAware ADS-B
Thu 10:34:16 PM 39.7309 -74.8865 351° North 256 295 7,200 -1,500 Descending FlightAware ADS-B
Thu 10:34:32 PM 39.7487 -74.8900 351° North 255 293 6,800 -1,355 Descending FlightAware ADS-B
Thu 10:34:47 PM 39.7670 -74.8935 352° North 251 289 6,500 -968 Descending FlightAware ADS-B
Thu 10:35:03 PM 39.7843 -74.8967 352° North 241 277 6,300 -1,029 Descending FlightAware ADS-B
Thu 10:35:22 PM 39.8049 -74.9003 352° North 224 258 5,900 -1,350 Descending FlightAware ADS-B
Thu 10:35:43 PM 39.8256 -74.9038 353° North 224 258 5,400 -1,667 Descending FlightAware ADS-B
Thu 10:35:58 PM 39.8401 -74.9060 353° North 208 239 4,900 -1,909 Descending FlightAware ADS-B
Thu 10:36:05 PM 39.8466 -74.9070 353° North 207 238 4,700 -1,846 Descending FlightAware ADS-B
Thu 10:36:11 PM 39.8516 -74.9081 350° North 205 236 4,500 -2,308 Descending FlightAware ADS-B
Thu 10:36:18 PM 39.8584 -74.9101 347° North 202 232 4,200 -2,000 Descending FlightAware ADS-B
Thu 10:36:26 PM 39.8654 -74.9126 345° North 201 231 4,000 -1,412 Descending FlightAware ADS-B
Thu 10:36:52 PM 39.8876 -74.9223 341° North 197 227 3,400 -1,125 Descending FlightAware ADS-B
Thu 10:36:58 PM 39.8921 -74.9259 328° Northwest 176 203 3,400 -500 Level FlightAware ADS-B
Thu 10:37:04 PM 39.8961 -74.9293 327° Northwest 172 198 3,300 -429 Descending FlightAware ADS-B
Thu 10:37:12 PM 39.9007 -74.9338 323° Northwest 168 193 3,300 -400 Level FlightAware ADS-B
Thu 10:37:19 PM 39.9045 -74.9384 317° Northwest 164 189 3,200 -1,000 Descending FlightAware ADS-B
Thu 10:37:24 PM 39.9076 -74.9426 314° West 162 186 3,100 -545 Descending FlightAware ADS-B
Thu 10:37:30 PM 39.9101 -74.9466 309° West 160 184 3,100  Level FlightAware ADS-B
Thu 10:37:45 PM 39.9165 -74.9593 303° West 164 189 3,100  Level FlightAware ADS-B
Thu 10:37:53 PM 39.9192 -74.9655 300° West 163 188 3,100  Level FlightAware ADS-B
Thu 10:37:59 PM 39.9212 -74.9709 296° West 163 188 3,100  Level FlightAware ADS-B
Thu 10:38:03 PM 39.9220 -74.9747 285° West 163 188 3,100  Level FlightAware ADS-B
Thu 10:38:08 PM 39.9223 -74.9794 275° West 164 189 3,100  Level FlightAware ADS-B
Thu 10:38:11 PM 39.9222 -74.9826 268° West 166 191 3,100  Level FlightAware ADS-B
Thu 10:38:15 PM 39.9217 -74.9865 261° West 168 193 3,100  Level FlightAware ADS-B
Thu 10:38:20 PM 39.9207 -74.9921 257° West 169 194 3,100  Level FlightAware ADS-B
Thu 10:38:32 PM 39.9182 -75.0039 255° West 168 193 3,100  Level FlightAware ADS-B
Thu 10:38:47 PM 39.9157 -75.0180 257° West 167 192 3,100 -522 Level FlightAware ADS-B
Thu 10:39:18 PM 39.9095 -75.0495 256° West 175 201 2,700 -667 Descending FlightAware ADS-B
Thu 10:39:32 PM 39.9068 -75.0634 256° West 175 201 2,600 -692 Descending FlightAware ADS-B
Thu 10:39:44 PM 39.9044 -75.0753 255° West 167 192 2,400 -1,043 Descending FlightAware ADS-B
Thu 10:39:55 PM 39.9024 -75.0855 256° West 161 185 2,200 -923 Descending FlightAware ADS-B
Thu 10:40:10 PM 39.8996 -75.0998 256° West 150 173 2,000 -774 Descending FlightAware ADS-B
Thu 10:40:26 PM 39.8970 -75.1126 255° West 139 160 1,800 -750 Descending FlightAware ADS-B
Thu 10:40:42 PM 39.8947 -75.1243 256° West 123 142 1,600 -581 Descending FlightAware ADS-B
Thu 10:40:57 PM 39.8928 -75.1342 256° West 106 122 1,500 -444 Descending FlightAware ADS-B
Thu 10:41:09 PM 39.8914 -75.1415 256° West 97 112 1,400 -522 Descending FlightAware ADS-B
Thu 10:41:20 PM 39.8901 -75.1475 254° West 96 110 1,300 -545 Descending FlightAware ADS-B
Thu 10:41:31 PM 39.8890 -75.1535 257° West 96 110 1,200 -444 Descending FlightAware ADS-B
Thu 10:41:47 PM 39.8872 -75.1627 256° West 98 113 1,100 -429 Descending FlightAware ADS-B
Thu 10:41:59 PM 39.8859 -75.1694 256° West 101 116 1,000 -621 Descending FlightAware ADS-B
Thu 10:42:16 PM 39.8839 -75.1796 256° West 102 117 800 -600 Descending FlightAware ADS-B
Thu 10:42:29 PM 39.8823 -75.1873 255° West 105 121 700 -414 Descending FlightAware ADS-B
Thu 10:42:45 PM 39.8804 -75.1971 256° West 105 121 600 -414 Descending FlightAware ADS-B
Thu 10:43:27 PM 39.8760 -75.2170 254° West 109 125 300 -429 Descending FlightAware ADS-B

Login

Don't have an account? Register now (free) for customized features, flight alerts, and more!